SNOW

Not for real navigation. The accuracy of this data is not assured See disclaimer for more information



ICAO NAME COUNTRY WIND Kt GUST Kt VIS m TEMP/DEW C BARO METAR
CYDL 4 0 1600 0/0 29.90 CYDL 191500Z AUTO 22004KT 1SM -SN 00/M00 A2990 RMK ICG CLD MISG SLP152
CYKD Aklavik Airport Canada 5 0 3200 2/2 30.16 CYKD 191500Z 31005KT 2 0.5SM -RASN BR OVC007 02/02 A3016 RMK ST8 CIG RAG VIS W 6 SLP216
CYLT Alert Airport Canada 2 0 4800 0/-1 29.88 CYLT 191500Z 01002KT 3SM -SN BKN007 OVC020 M00/M01 A2988 RMK ST6SC2 SLP121
CYQH Watson Lake, Y. T. Canada 3 0 12800 2/0 29.99 CYQH 191500Z 04003KT 010V080 8SM -RASN OVC040 02/M00 A2999 RMK SC8 SLP186
CYIO Pond Inlet, N. W. T. Canada 3 0 32767 8/4 30.00 CYIO 191500Z 24003KT 40SM FEW050 FEW250 SCT280 08/04 A3000 RMK SC1CC1CC1 R00 AFT 21UTC/0/SNW CVR/NIL

Show more